Time;durP1;ratioP1;P1;durP2;ratioP2;P2;SDS_P1;SDS_P2;PMS_P1;PMS_P2;Temp;Humidity;BMP_temperature;BMP_pressure;BME280_temperature;BME280_humidity;BME280_pressure;Samples;Min_cycle;Max_cycle;Signal;HPM_P1;HPM_P2
2023/03/30 00:01:13;;;;;;;3.60;1.53;;;;;;;;;;5089564;28;20202;-61
2023/03/30 00:03:41;;;;;;;1.67;1.47;;;;;;;;;;5089143;28;20210;-62
2023/03/30 00:06:10;;;;;;;3.07;1.40;;;;;;;;;;5089427;28;20194;-62
2023/03/30 00:08:38;;;;;;;1.63;1.53;;;;;;;;;;5091909;28;20199;-62
2023/03/30 00:11:06;;;;;;;3.87;1.80;;;;;;;;;;5099767;28;20575;-62
2023/03/30 00:13:34;;;;;;;2.40;1.33;;;;;;;;;;5090044;28;20301;-62
2023/03/30 00:16:01;;;;;;;2.83;1.60;;;;;;;;;;5090541;28;20206;-61
2023/03/30 00:18:29;;;;;;;1.30;1.30;;;;;;;;;;5089778;28;20688;-62
2023/03/30 00:20:57;;;;;;;1.30;1.20;;;;;;;;;;5088525;28;20229;-62
2023/03/30 00:23:25;;;;;;;1.33;1.20;;;;;;;;;;5089862;28;20241;-62
2023/03/30 00:25:52;;;;;;;1.33;1.23;;;;;;;;;;5088794;28;20210;-61
2023/03/30 00:28:20;;;;;;;1.80;1.33;;;;;;;;;;5079544;28;20208;-62
2023/03/30 00:30:47;;;;;;;1.37;1.37;;;;;;;;;;5089622;28;20387;-61
2023/03/30 00:33:14;;;;;;;2.60;1.30;;;;;;;;;;5088130;28;20298;-62
2023/03/30 00:35:42;;;;;;;1.93;1.40;;;;;;;;;;5088356;28;20952;-62
2023/03/30 00:38:09;;;;;;;0.90;0.90;;;;;;;;;;5088402;28;20219;-62
2023/03/30 00:40:37;;;;;;;2.63;1.37;;;;;;;;;;5100966;28;20206;-61
2023/03/30 00:43:05;;;;;;;1.53;1.20;;;;;;;;;;5087945;28;20205;-61
2023/03/30 00:45:35;;;;;;;1.63;1.03;;;;;;;;;;5096477;28;20216;-61
2023/03/30 00:48:05;;;;;;;2.53;1.57;;;;;;;;;;5093615;28;20204;-61
2023/03/30 00:50:34;;;;;;;1.30;1.20;;;;;;;;;;5090895;28;20594;-61
2023/03/30 00:53:05;;;;;;;2.43;1.10;;;;;;;;;;5087799;28;20202;-61
2023/03/30 00:55:33;;;;;;;1.10;1.10;;;;;;;;;;5091467;28;20210;-61
2023/03/30 00:58:02;;;;;;;3.90;1.20;;;;;;;;;;5086449;28;20237;-61
2023/03/30 01:00:29;;;;;;;1.33;1.23;;;;;;;;;;5081806;28;20680;-61
2023/03/30 01:02:58;;;;;;;1.53;1.33;;;;;;;;;;5084915;28;20210;-61
2023/03/30 01:05:27;;;;;;;1.93;1.00;;;;;;;;;;5098456;28;20656;-62
2023/03/30 01:07:56;;;;;;;1.37;1.30;;;;;;;;;;5088914;28;20206;-62
2023/03/30 01:10:24;;;;;;;1.40;1.40;;;;;;;;;;5087595;28;20202;-63
2023/03/30 01:12:51;;;;;;;0.97;0.80;;;;;;;;;;5091683;28;20202;-62
2023/03/30 01:15:20;;;;;;;1.20;1.00;;;;;;;;;;5099638;28;20201;-62
2023/03/30 01:17:54;;;;;;;1.90;1.40;;;;;;;;;;5087743;28;20320;-62
2023/03/30 01:20:32;;;;;;;1.07;1.07;;;;;;;;;;5087373;28;20687;-62
2023/03/30 01:23:11;;;;;;;1.70;1.60;;;;;;;;;;5087347;28;20826;-62
2023/03/30 01:25:47;;;;;;;5.47;1.33;;;;;;;;;;5093665;28;20209;-62
2023/03/30 01:28:19;;;;;;;1.40;1.30;;;;;;;;;;5084168;28;20216;-59
2023/03/30 01:30:59;;;;;;;1.13;1.13;;;;;;;;;;5087309;28;20295;-61
2023/03/30 01:33:42;;;;;;;2.93;1.20;;;;;;;;;;5074767;28;20278;-64
2023/03/30 01:36:27;;;;;;;2.87;0.87;;;;;;;;;;5085657;28;20198;-61
2023/03/30 01:39:17;;;;;;;1.07;1.03;;;;;;;;;;5088823;28;20692;-61
2023/03/30 01:41:50;;;;;;;1.10;1.10;;;;;;;;;;5094685;28;20202;-61
2023/03/30 01:44:20;;;;;;;1.00;1.00;;;;;;;;;;5092312;28;20206;-60
2023/03/30 01:46:50;;;;;;;2.10;1.03;;;;;;;;;;5088427;28;20206;-61
2023/03/30 01:49:20;;;;;;;1.73;1.40;;;;;;;;;;5087104;28;20262;-61
2023/03/30 01:51:55;;;;;;;1.27;1.23;;;;;;;;;;5087093;28;20584;-62
2023/03/30 01:54:26;;;;;;;1.07;1.07;;;;;;;;;;5096374;28;20216;-61
2023/03/30 01:56:55;;;;;;;1.30;1.20;;;;;;;;;;5078098;28;20209;-61
2023/03/30 01:59:25;;;;;;;2.30;1.30;;;;;;;;;;5091242;28;20684;-61
2023/03/30 02:01:59;;;;;;;2.70;1.20;;;;;;;;;;5091121;28;20211;-61
2023/03/30 02:04:27;;;;;;;1.30;1.07;;;;;;;;;;5097068;28;20658;-61
2023/03/30 02:06:56;;;;;;;0.87;0.87;;;;;;;;;;5095325;28;20235;-61
2023/03/30 02:09:26;;;;;;;2.10;1.17;;;;;;;;;;5098400;28;20205;-61
2023/03/30 02:11:54;;;;;;;3.90;0.80;;;;;;;;;;5087482;28;20890;-61
2023/03/30 02:14:23;;;;;;;3.17;1.13;;;;;;;;;;5095649;28;20202;-61
2023/03/30 02:16:52;;;;;;;5.70;1.43;;;;;;;;;;5091230;28;20199;-61
2023/03/30 02:19:20;;;;;;;1.00;1.00;;;;;;;;;;5095351;28;20233;-61
2023/03/30 02:21:49;;;;;;;5.87;1.10;;;;;;;;;;5091583;28;20222;-61
2023/03/30 02:24:18;;;;;;;2.87;1.20;;;;;;;;;;5097721;28;20624;-61
2023/03/30 02:26:48;;;;;;;2.03;0.90;;;;;;;;;;5090600;28;20209;-61
2023/03/30 02:29:16;;;;;;;4.47;1.10;;;;;;;;;;5093961;28;20214;-63
2023/03/30 02:31:44;;;;;;;1.10;0.93;;;;;;;;;;5103457;28;20198;-61
2023/03/30 02:34:14;;;;;;;2.20;1.10;;;;;;;;;;5103007;28;20205;-62
2023/03/30 02:36:49;;;;;;;1.10;1.10;;;;;;;;;;5108777;28;20233;-61
2023/03/30 02:39:21;;;;;;;3.10;1.60;;;;;;;;;;5109754;28;20576;-61
2023/03/30 02:41:59;;;;;;;0.97;0.97;;;;;;;;;;5092188;28;20350;-62
2023/03/30 02:44:32;;;;;;;1.83;1.30;;;;;;;;;;5099547;28;20777;-61
2023/03/30 02:47:03;;;;;;;1.07;1.07;;;;;;;;;;5080449;28;20256;-61
2023/03/30 02:49:36;;;;;;;1.10;1.10;;;;;;;;;;5091682;28;20565;-61
2023/03/30 02:52:07;;;;;;;1.43;1.20;;;;;;;;;;5089993;28;20210;-61
2023/03/30 02:54:39;;;;;;;1.37;1.07;;;;;;;;;;5106138;28;20565;-61
2023/03/30 02:57:11;;;;;;;1.60;0.90;;;;;;;;;;5089705;28;20210;-62
2023/03/30 02:59:42;;;;;;;2.30;1.20;;;;;;;;;;5091096;28;20233;-61
2023/03/30 03:02:12;;;;;;;1.67;1.50;;;;;;;;;;5090037;28;20210;-61
2023/03/30 03:04:42;;;;;;;2.27;1.13;;;;;;;;;;5106934;28;20217;-61
2023/03/30 03:07:09;;;;;;;0.90;0.90;;;;;;;;;;5067962;28;20214;-61
2023/03/30 03:09:36;;;;;;;4.23;1.20;;;;;;;;;;5094039;28;20277;-61
2023/03/30 03:12:03;;;;;;;0.90;0.90;;;;;;;;;;5089784;28;20198;-61
2023/03/30 03:14:32;;;;;;;1.00;0.93;;;;;;;;;;5100142;28;20226;-61
2023/03/30 03:16:59;;;;;;;1.50;1.03;;;;;;;;;;5090301;28;20255;-61
2023/03/30 03:19:26;;;;;;;2.40;1.37;;;;;;;;;;5092465;28;20230;-61
2023/03/30 03:21:53;;;;;;;3.77;1.23;;;;;;;;;;5093891;28;20214;-61
2023/03/30 03:24:20;;;;;;;1.20;1.17;;;;;;;;;;5099854;28;20241;-61
2023/03/30 03:26:48;;;;;;;3.37;1.17;;;;;;;;;;5089731;28;20205;-61
2023/03/30 03:29:15;;;;;;;1.60;1.03;;;;;;;;;;5101514;28;20201;-61
2023/03/30 03:31:43;;;;;;;1.80;1.27;;;;;;;;;;5090108;28;20209;-61
2023/03/30 03:34:10;;;;;;;2.23;1.37;;;;;;;;;;5091487;28;20217;-61
2023/03/30 03:36:38;;;;;;;3.70;1.17;;;;;;;;;;5093179;28;20199;-61
2023/03/30 03:39:05;;;;;;;1.73;0.77;;;;;;;;;;5097207;28;20245;-61
2023/03/30 03:41:32;;;;;;;2.63;1.20;;;;;;;;;;5109838;28;20346;-62
2023/03/30 03:43:59;;;;;;;3.03;1.10;;;;;;;;;;5096648;28;20211;-61
2023/03/30 03:46:26;;;;;;;2.83;1.27;;;;;;;;;;5089904;28;20228;-61
2023/03/30 03:48:55;;;;;;;1.73;1.00;;;;;;;;;;5094922;28;20665;-61
2023/03/30 03:51:22;;;;;;;2.20;1.07;;;;;;;;;;5093952;28;20217;-62
2023/03/30 03:53:49;;;;;;;1.57;1.10;;;;;;;;;;5092717;28;20213;-61
2023/03/30 03:56:16;;;;;;;4.77;1.17;;;;;;;;;;5095204;28;20251;-61
2023/03/30 03:58:43;;;;;;;4.63;0.90;;;;;;;;;;5102440;28;20221;-61
2023/03/30 04:01:13;;;;;;;1.87;1.30;;;;;;;;;;5089771;28;20199;-61
2023/03/30 04:03:40;;;;;;;2.13;1.30;;;;;;;;;;5090131;28;20202;-61
2023/03/30 04:06:08;;;;;;;1.27;1.23;;;;;;;;;;5088892;28;20213;-61
2023/03/30 04:08:36;;;;;;;5.83;1.13;;;;;;;;;;5086120;28;20293;-61
2023/03/30 04:11:07;;;;;;;4.83;1.50;;;;;;;;;;5090288;28;20209;-61
2023/03/30 04:13:34;;;;;;;3.37;1.47;;;;;;;;;;5090650;28;20756;-61
2023/03/30 04:16:02;;;;;;;2.03;1.00;;;;;;;;;;5088975;28;20204;-61
2023/03/30 04:18:32;;;;;;;1.40;1.40;;;;;;;;;;5100911;28;20282;-61
2023/03/30 04:21:01;;;;;;;1.53;0.93;;;;;;;;;;5094026;28;20237;-61
2023/03/30 04:23:32;;;;;;;3.00;1.50;;;;;;;;;;5098726;28;20237;-62
2023/03/30 04:26:00;;;;;;;4.07;1.10;;;;;;;;;;5088504;28;20219;-62
2023/03/30 04:28:28;;;;;;;3.17;1.03;;;;;;;;;;5092879;28;20210;-62
2023/03/30 04:30:58;;;;;;;1.60;1.03;;;;;;;;;;5088885;28;20899;-62
2023/03/30 04:33:25;;;;;;;3.33;1.10;;;;;;;;;;5090301;28;20285;-59
2023/03/30 04:35:52;;;;;;;4.43;1.30;;;;;;;;;;5089337;28;20217;-59
2023/03/30 04:38:21;;;;;;;1.43;1.33;;;;;;;;;;5096211;28;20240;-59
2023/03/30 04:40:50;;;;;;;3.07;1.03;;;;;;;;;;5087698;28;20234;-59
2023/03/30 04:43:18;;;;;;;2.47;1.23;;;;;;;;;;5088642;28;20262;-62
2023/03/30 04:45:49;;;;;;;1.20;1.10;;;;;;;;;;5092141;28;20321;-61
2023/03/30 04:48:16;;;;;;;1.37;1.20;;;;;;;;;;5093538;28;20198;-61
2023/03/30 04:50:45;;;;;;;10.90;1.60;;;;;;;;;;5087434;28;20241;-62
2023/03/30 04:53:13;;;;;;;0.97;0.83;;;;;;;;;;5087874;28;20218;-62
2023/03/30 04:55:40;;;;;;;0.90;0.90;;;;;;;;;;5098422;28;20202;-62
2023/03/30 04:58:10;;;;;;;2.63;1.20;;;;;;;;;;5097315;28;20246;-62
2023/03/30 05:00:37;;;;;;;4.83;1.13;;;;;;;;;;5098543;28;20208;-61
2023/03/30 05:03:04;;;;;;;1.93;1.00;;;;;;;;;;5089150;28;20213;-62
2023/03/30 05:05:31;;;;;;;2.10;0.93;;;;;;;;;;5087885;28;20217;-62
2023/03/30 05:08:16;;;;;;;3.50;1.00;;;;;;;;;;5105024;28;20202;-62
2023/03/30 05:10:43;;;;;;;1.10;1.10;;;;;;;;;;5076068;28;20217;-61
2023/03/30 05:13:12;;;;;;;3.17;1.30;;;;;;;;;;5077562;28;20206;-61
2023/03/30 05:15:39;;;;;;;1.23;0.80;;;;;;;;;;5093193;28;20216;-61
2023/03/30 05:18:06;;;;;;;2.67;1.30;;;;;;;;;;5088426;28;20288;-62
2023/03/30 05:20:33;;;;;;;6.40;1.00;;;;;;;;;;5090290;28;20222;-61
2023/03/30 05:23:00;;;;;;;6.10;1.47;;;;;;;;;;5087521;28;20242;-63
2023/03/30 05:25:27;;;;;;;1.00;0.97;;;;;;;;;;5094159;28;20211;-62
2023/03/30 05:27:54;;;;;;;5.10;1.43;;;;;;;;;;5092716;28;20529;-62
2023/03/30 05:30:23;;;;;;;2.37;0.83;;;;;;;;;;5089134;28;20205;-62
2023/03/30 05:32:50;;;;;;;3.00;1.33;;;;;;;;;;5085602;28;20213;-62
2023/03/30 05:35:17;;;;;;;3.80;1.30;;;;;;;;;;5091466;28;20611;-62
2023/03/30 05:37:44;;;;;;;1.90;1.33;;;;;;;;;;5088302;28;20209;-60
2023/03/30 05:40:12;;;;;;;14.37;1.53;;;;;;;;;;5090302;28;20225;-60
2023/03/30 05:42:39;;;;;;;1.87;1.10;;;;;;;;;;5073519;28;20235;-61
2023/03/30 05:45:08;;;;;;;1.83;0.90;;;;;;;;;;5075459;28;20237;-61
2023/03/30 05:47:36;;;;;;;7.43;1.80;;;;;;;;;;5087561;28;20653;-61
2023/03/30 05:50:03;;;;;;;4.30;1.23;;;;;;;;;;5081558;28;20599;-66
2023/03/30 05:52:30;;;;;;;1.23;0.93;;;;;;;;;;5105992;28;20207;-61
2023/03/30 05:54:57;;;;;;;5.60;1.13;;;;;;;;;;5086928;28;20198;-61
2023/03/30 05:57:24;;;;;;;3.70;1.23;;;;;;;;;;5097448;28;20213;-62
2023/03/30 05:59:51;;;;;;;1.47;1.13;;;;;;;;;;5088313;28;20218;-61
2023/03/30 06:02:18;;;;;;;1.53;1.30;;;;;;;;;;5081884;28;20199;-61
2023/03/30 06:04:47;;;;;;;3.40;1.10;;;;;;;;;;5066630;28;20217;-61
2023/03/30 06:07:14;;;;;;;2.00;1.30;;;;;;;;;;5066906;28;20218;-61
2023/03/30 06:09:41;;;;;;;10.00;1.47;;;;;;;;;;5066684;28;20258;-62
2023/03/30 06:12:08;;;;;;;1.97;1.20;;;;;;;;;;5066478;28;20610;-61
2023/03/30 06:14:35;;;;;;;3.63;1.27;;;;;;;;;;5072761;28;20206;-62
2023/03/30 06:17:02;;;;;;;5.50;1.33;;;;;;;;;;5086747;28;20211;-62
2023/03/30 06:19:29;;;;;;;6.37;1.30;;;;;;;;;;5086565;28;20241;-61
2023/03/30 06:21:58;;;;;;;1.93;1.53;;;;;;;;;;5086683;28;20326;-62
2023/03/30 06:24:25;;;;;;;6.80;1.33;;;;;;;;;;5086715;28;20327;-61
2023/03/30 06:26:53;;;;;;;6.23;1.10;;;;;;;;;;5086593;28;20572;-61
2023/03/30 06:29:20;;;;;;;2.97;0.97;;;;;;;;;;5086945;28;20213;-60
2023/03/30 06:31:47;;;;;;;2.20;1.33;;;;;;;;;;5086222;28;20222;-60
2023/03/30 06:34:15;;;;;;;3.80;1.13;;;;;;;;;;5086878;28;20607;-60
2023/03/30 06:36:42;;;;;;;1.00;1.00;;;;;;;;;;5086412;28;20582;-60
2023/03/30 06:39:11;;;;;;;3.83;1.10;;;;;;;;;;5086761;28;20286;-60
2023/03/30 06:41:38;;;;;;;1.40;1.00;;;;;;;;;;5085641;28;20221;-61
2023/03/30 06:44:05;;;;;;;1.00;1.00;;;;;;;;;;5089715;28;20206;-61
2023/03/30 06:46:33;;;;;;;4.37;1.00;;;;;;;;;;5090366;28;20214;-61
2023/03/30 06:49:00;;;;;;;2.53;1.00;;;;;;;;;;5090398;28;20206;-61
2023/03/30 06:51:27;;;;;;;1.73;1.00;;;;;;;;;;5086753;28;20203;-61
2023/03/30 06:53:54;;;;;;;2.87;0.90;;;;;;;;;;5090228;28;20210;-61
2023/03/30 06:56:23;;;;;;;2.13;1.00;;;;;;;;;;5090069;28;20215;-61
2023/03/30 06:58:50;;;;;;;6.23;0.80;;;;;;;;;;5090071;28;20206;-61
2023/03/30 07:01:17;;;;;;;2.67;1.00;;;;;;;;;;5090217;28;20214;-60
2023/03/30 07:03:45;;;;;;;2.97;1.10;;;;;;;;;;5089942;28;20242;-61
2023/03/30 07:06:12;;;;;;;4.40;1.70;;;;;;;;;;5090609;28;20814;-61
2023/03/30 07:08:40;;;;;;;3.43;1.37;;;;;;;;;;5089566;28;20214;-63
2023/03/30 07:11:07;;;;;;;2.37;1.27;;;;;;;;;;5089672;28;20581;-61
2023/03/30 07:13:35;;;;;;;0.87;0.87;;;;;;;;;;5089488;28;20202;-61
2023/03/30 07:16:03;;;;;;;7.17;1.00;;;;;;;;;;5089899;28;20206;-61
2023/03/30 07:18:30;;;;;;;1.17;0.80;;;;;;;;;;5089825;28;20206;-62
2023/03/30 07:20:58;;;;;;;1.00;1.00;;;;;;;;;;5089946;28;20632;-61
2023/03/30 07:23:25;;;;;;;3.13;1.00;;;;;;;;;;5089530;28;20250;-61
2023/03/30 07:25:52;;;;;;;1.40;1.30;;;;;;;;;;5089695;28;20206;-61
2023/03/30 07:28:20;;;;;;;0.80;0.80;;;;;;;;;;5089370;28;20210;-61
2023/03/30 07:30:48;;;;;;;3.30;1.17;;;;;;;;;;5089666;28;20206;-62
2023/03/30 07:33:16;;;;;;;1.30;1.20;;;;;;;;;;5089625;28;20217;-61
2023/03/30 07:35:44;;;;;;;5.13;0.97;;;;;;;;;;5089217;28;20210;-61
2023/03/30 07:38:11;;;;;;;1.50;1.20;;;;;;;;;;5089247;28;20599;-62
2023/03/30 07:40:39;;;;;;;1.80;0.90;;;;;;;;;;5088211;28;20317;-63
2023/03/30 07:43:06;;;;;;;0.87;0.87;;;;;;;;;;5088346;28;20746;-61
2023/03/30 07:45:33;;;;;;;3.13;1.10;;;;;;;;;;5088698;28;20549;-61
2023/03/30 07:48:01;;;;;;;4.53;1.47;;;;;;;;;;5089428;28;20214;-66
2023/03/30 07:50:29;;;;;;;1.83;1.40;;;;;;;;;;5088500;28;20713;-60
2023/03/30 07:52:56;;;;;;;1.83;1.40;;;;;;;;;;5089385;28;20249;-60
2023/03/30 07:55:23;;;;;;;0.97;0.97;;;;;;;;;;5087702;28;20673;-61
2023/03/30 07:57:51;;;;;;;1.00;0.90;;;;;;;;;;5088679;28;20202;-61
2023/03/30 08:00:20;;;;;;;4.43;1.23;;;;;;;;;;5088231;28;20329;-61
2023/03/30 08:02:47;;;;;;;2.23;0.87;;;;;;;;;;5088532;28;20631;-60
2023/03/30 08:05:16;;;;;;;1.30;1.17;;;;;;;;;;5088176;28;20202;-61
2023/03/30 08:07:43;;;;;;;1.40;1.00;;;;;;;;;;5088437;28;20590;-60
2023/03/30 08:10:11;;;;;;;0.90;0.90;;;;;;;;;;5087468;28;20567;-61
2023/03/30 08:12:38;;;;;;;4.57;1.57;;;;;;;;;;5088034;28;20214;-61
2023/03/30 08:15:06;;;;;;;1.20;1.10;;;;;;;;;;5088121;28;20209;-60
2023/03/30 08:17:33;;;;;;;5.20;1.00;;;;;;;;;;5088416;28;20249;-60
2023/03/30 08:20:01;;;;;;;4.13;1.30;;;;;;;;;;5085882;28;20229;-61
2023/03/30 08:22:29;;;;;;;1.33;1.23;;;;;;;;;;5082863;28;20317;-60
2023/03/30 08:24:56;;;;;;;3.47;1.20;;;;;;;;;;5088455;28;20684;-60
2023/03/30 08:27:23;;;;;;;2.43;1.40;;;;;;;;;;5086198;28;20312;-60
2023/03/30 08:29:53;;;;;;;1.60;1.50;;;;;;;;;;5088467;28;20211;-60
2023/03/30 08:32:20;;;;;;;1.67;1.57;;;;;;;;;;5088288;28;20323;-61
2023/03/30 08:34:47;;;;;;;1.30;1.20;;;;;;;;;;5088506;28;20214;-61
2023/03/30 08:37:14;;;;;;;1.77;1.67;;;;;;;;;;5088104;28;20202;-61
2023/03/30 08:39:42;;;;;;;1.47;1.37;;;;;;;;;;5088144;28;20461;-60
2023/03/30 08:42:17;;;;;;;1.53;1.30;;;;;;;;;;5087682;28;20764;-60
2023/03/30 08:44:44;;;;;;;5.10;1.60;;;;;;;;;;5088261;28;20357;-60
2023/03/30 08:47:13;;;;;;;1.53;1.43;;;;;;;;;;5087826;28;20220;-60
2023/03/30 08:49:42;;;;;;;1.58;1.33;;;;;;;;;;5088097;28;20202;-60
2023/03/30 08:52:13;;;;;;;1.67;1.13;;;;;;;;;;5087759;28;20210;-61
2023/03/30 08:54:40;;;;;;;1.40;1.30;;;;;;;;;;5087295;28;20574;-60
2023/03/30 08:57:12;;;;;;;1.50;1.40;;;;;;;;;;5087295;28;20669;-60
2023/03/30 08:59:43;;;;;;;5.40;1.50;;;;;;;;;;5084460;28;20332;-60
2023/03/30 09:02:16;;;;;;;1.83;1.63;;;;;;;;;;5084589;28;20206;-61
2023/03/30 09:04:47;;;;;;;4.70;1.70;;;;;;;;;;5085559;28;20690;-60
2023/03/30 09:07:17;;;;;;;1.20;1.10;;;;;;;;;;5086084;28;20218;-60
2023/03/30 09:09:46;;;;;;;1.97;1.17;;;;;;;;;;5086722;28;20209;-61
2023/03/30 09:12:19;;;;;;;5.72;1.50;;;;;;;;;;5086476;28;20810;-60
2023/03/30 09:14:48;;;;;;;1.40;0.97;;;;;;;;;;5085017;28;20724;-60
2023/03/30 09:17:20;;;;;;;2.85;1.20;;;;;;;;;;5087084;28;20217;-61
2023/03/30 09:19:50;;;;;;;2.13;1.10;;;;;;;;;;5086998;28;20226;-60
2023/03/30 09:22:18;;;;;;;0.85;0.85;;;;;;;;;;5086434;28;20226;-63
2023/03/30 09:24:46;;;;;;;2.90;1.63;;;;;;;;;;5086941;28;20198;-61
2023/03/30 09:27:17;;;;;;;1.80;1.00;;;;;;;;;;5086794;28;20230;-62
2023/03/30 09:29:47;;;;;;;1.48;1.42;;;;;;;;;;5087205;28;20206;-60
2023/03/30 09:32:18;;;;;;;1.40;1.30;;;;;;;;;;5086938;28;20207;-60
2023/03/30 09:34:46;;;;;;;2.92;1.70;;;;;;;;;;5086600;28;20846;-60
2023/03/30 09:37:17;;;;;;;1.02;1.02;;;;;;;;;;5086972;28;20256;-60
2023/03/30 09:39:44;;;;;;;2.45;1.88;;;;;;;;;;5086224;28;20198;-60
2023/03/30 09:42:19;;;;;;;3.75;1.77;;;;;;;;;;5086688;28;20339;-60
2023/03/30 09:44:48;;;;;;;2.45;1.55;;;;;;;;;;5086448;28;20703;-61
2023/03/30 09:47:20;;;;;;;1.00;1.00;;;;;;;;;;5070949;28;20752;-61
2023/03/30 09:49:50;;;;;;;2.00;1.85;;;;;;;;;;5086350;28;20207;-63
2023/03/30 09:52:20;;;;;;;2.03;1.30;;;;;;;;;;5087019;28;20214;-61
2023/03/30 09:54:48;;;;;;;1.48;1.38;;;;;;;;;;5087012;28;20657;-61
2023/03/30 09:57:24;;;;;;;1.50;1.10;;;;;;;;;;5087128;28;20206;-61
2023/03/30 09:59:54;;;;;;;4.07;2.20;;;;;;;;;;5087097;28;20202;-61
2023/03/30 10:02:22;;;;;;;4.22;1.60;;;;;;;;;;5086881;28;20592;-61
2023/03/30 10:04:56;;;;;;;4.18;1.63;;;;;;;;;;5086893;28;20210;-60
2023/03/30 10:07:24;;;;;;;2.13;1.77;;;;;;;;;;5087450;28;20214;-61
2023/03/30 10:09:51;;;;;;;1.27;1.02;;;;;;;;;;5086587;28;20202;-61
2023/03/30 10:12:18;;;;;;;1.83;1.65;;;;;;;;;;5087000;28;20210;-61
2023/03/30 10:14:47;;;;;;;1.48;1.38;;;;;;;;;;5086821;28;20694;-61
2023/03/30 10:17:20;;;;;;;6.57;1.52;;;;;;;;;;5087685;28;20205;-60
2023/03/30 10:19:47;;;;;;;2.10;1.33;;;;;;;;;;5090698;28;20253;-61
2023/03/30 10:22:16;;;;;;;1.73;1.52;;;;;;;;;;5090782;28;20214;-62
2023/03/30 10:24:49;;;;;;;1.75;1.30;;;;;;;;;;5090853;28;20213;-61
2023/03/30 10:27:16;;;;;;;1.52;1.20;;;;;;;;;;5090764;28;20681;-61
2023/03/30 10:29:47;;;;;;;3.67;1.33;;;;;;;;;;5091227;28;20233;-60
2023/03/30 10:32:16;;;;;;;1.85;1.15;;;;;;;;;;5091155;28;20209;-62
2023/03/30 10:34:44;;;;;;;1.48;1.02;;;;;;;;;;5090566;28;20213;-61
2023/03/30 10:37:12;;;;;;;1.50;1.00;;;;;;;;;;5091063;28;20739;-63
2023/03/30 10:39:40;;;;;;;1.73;0.75;;;;;;;;;;5090421;28;20209;-61
2023/03/30 10:42:09;;;;;;;0.70;0.70;;;;;;;;;;5090110;28;20703;-72
2023/03/30 10:44:37;;;;;;;1.80;1.00;;;;;;;;;;5081694;28;20199;-61
2023/03/30 10:47:18;;;;;;;0.85;0.85;;;;;;;;;;5090771;28;20211;-60
2023/03/30 10:49:50;;;;;;;0.93;0.93;;;;;;;;;;5090734;28;20210;-62
2023/03/30 10:52:20;;;;;;;1.15;1.10;;;;;;;;;;5090902;28;20195;-62
2023/03/30 10:54:50;;;;;;;1.23;0.90;;;;;;;;;;5090425;28;20229;-60
2023/03/30 10:57:19;;;;;;;0.95;0.95;;;;;;;;;;5090186;28;20209;-60
2023/03/30 10:59:53;;;;;;;0.73;0.73;;;;;;;;;;5090407;28;20234;-61
2023/03/30 11:02:26;;;;;;;1.85;0.95;;;;;;;;;;5090513;28;21221;-60
2023/03/30 11:04:56;;;;;;;4.78;0.88;;;;;;;;;;5090238;28;20205;-61
2023/03/30 11:07:27;;;;;;;1.48;0.85;;;;;;;;;;5090052;28;20213;-61
2023/03/30 11:09:55;;;;;;;1.75;0.90;;;;;;;;;;5089881;28;20206;-61
2023/03/30 11:12:24;;;;;;;0.80;0.80;;;;;;;;;;5089258;28;20203;-61
2023/03/30 11:14:53;;;;;;;0.80;0.80;;;;;;;;;;5090533;28;20677;-60
2023/03/30 11:17:23;;;;;;;3.47;1.13;;;;;;;;;;5090078;28;20672;-61
2023/03/30 11:19:54;;;;;;;1.35;0.77;;;;;;;;;;5090302;28;20244;-61
2023/03/30 11:22:27;;;;;;;3.88;0.85;;;;;;;;;;5089854;28;20229;-61
2023/03/30 11:24:55;;;;;;;0.70;0.70;;;;;;;;;;5087402;28;20226;-60
2023/03/30 11:27:26;;;;;;;0.98;0.95;;;;;;;;;;5088667;28;20683;-61
2023/03/30 11:29:57;;;;;;;3.10;0.98;;;;;;;;;;5087844;28;20695;-61
2023/03/30 11:32:27;;;;;;;1.10;0.82;;;;;;;;;;5089323;28;20210;-60
2023/03/30 11:35:00;;;;;;;3.75;0.80;;;;;;;;;;5089344;28;20763;-61
2023/03/30 11:37:30;;;;;;;1.60;0.75;;;;;;;;;;5089690;28;20233;-60
2023/03/30 11:39:59;;;;;;;1.10;0.65;;;;;;;;;;5089765;28;20213;-61
2023/03/30 11:42:29;;;;;;;1.92;0.98;;;;;;;;;;5089607;28;20235;-61
2023/03/30 11:44:56;;;;;;;0.68;0.68;;;;;;;;;;5089756;28;20206;-61
2023/03/30 11:47:31;;;;;;;0.60;0.60;;;;;;;;;;5090100;28;20206;-61
2023/03/30 11:50:09;;;;;;;1.58;1.00;;;;;;;;;;5089747;28;20300;-61
2023/03/30 11:52:42;;;;;;;2.13;0.88;;;;;;;;;;5089996;28;20229;-61
2023/03/30 11:55:18;;;;;;;1.10;0.60;;;;;;;;;;5095100;28;20259;-61
2023/03/30 11:57:47;;;;;;;1.35;0.68;;;;;;;;;;5089338;28;20201;-61
2023/03/30 12:00:26;;;;;;;0.80;0.80;;;;;;;;;;5089586;28;20206;-61
2023/03/30 12:02:55;;;;;;;2.40;0.95;;;;;;;;;;5089534;28;20549;-61
2023/03/30 12:05:25;;;;;;;1.70;0.70;;;;;;;;;;5089994;28;20210;-61
2023/03/30 12:07:56;;;;;;;2.15;0.70;;;;;;;;;;5089281;28;20289;-61
2023/03/30 12:10:25;;;;;;;0.60;0.60;;;;;;;;;;5089140;28;20210;-61
2023/03/30 12:12:54;;;;;;;0.85;0.50;;;;;;;;;;5089003;28;20288;-61
2023/03/30 12:15:31;;;;;;;0.82;0.55;;;;;;;;;;5089231;28;20305;-61
2023/03/30 12:18:01;;;;;;;2.45;0.70;;;;;;;;;;5088678;28;20245;-62
2023/03/30 12:20:33;;;;;;;2.33;0.50;;;;;;;;;;5088541;28;20553;-61
2023/03/30 12:23:03;;;;;;;4.32;0.65;;;;;;;;;;5088335;28;20298;-61
2023/03/30 12:25:34;;;;;;;0.40;0.40;;;;;;;;;;5087951;28;20611;-60
2023/03/30 12:28:10;;;;;;;1.75;0.40;;;;;;;;;;5085295;28;20691;-62
2023/03/30 12:30:47;;;;;;;1.05;0.50;;;;;;;;;;5089913;28;20287;-61
2023/03/30 12:33:18;;;;;;;0.40;0.40;;;;;;;;;;5087972;28;20225;-61
2023/03/30 12:36:03;;;;;;;2.72;0.40;;;;;;;;;;5087486;28;20289;-61
2023/03/30 12:38:38;;;;;;;1.27;0.60;;;;;;;;;;5088294;28;20209;-60
2023/03/30 12:41:16;;;;;;;2.45;0.40;;;;;;;;;;5088984;28;20221;-60
2023/03/30 12:43:51;;;;;;;1.15;0.55;;;;;;;;;;5096165;28;20210;-60
2023/03/30 12:46:24;;;;;;;1.75;0.50;;;;;;;;;;5094198;28;20205;-61
2023/03/30 12:48:55;;;;;;;0.40;0.40;;;;;;;;;;5083178;28;20202;-61
2023/03/30 12:51:33;;;;;;;1.15;0.25;;;;;;;;;;5079786;28;20256;-62
2023/03/30 12:54:12;;;;;;;2.45;0.40;;;;;;;;;;5068875;28;20301;-62
2023/03/30 12:56:44;;;;;;;0.40;0.40;;;;;;;;;;5081247;28;20218;-62
2023/03/30 12:59:29;;;;;;;2.05;0.35;;;;;;;;;;5087985;28;20206;-62
2023/03/30 13:02:16;;;;;;;0.35;0.35;;;;;;;;;;5056559;28;20735;-62
2023/03/30 13:04:47;;;;;;;1.45;0.50;;;;;;;;;;5082006;28;20206;-62
2023/03/30 13:07:18;;;;;;;3.90;0.47;;;;;;;;;;5084627;28;20299;-61
2023/03/30 13:09:53;;;;;;;0.32;0.28;;;;;;;;;;5087455;28;20221;-62
2023/03/30 13:12:36;;;;;;;0.43;0.20;;;;;;;;;;5087743;28;20210;-62
2023/03/30 13:15:05;;;;;;;0.47;0.38;;;;;;;;;;5086372;28;20672;-63
2023/03/30 13:17:49;;;;;;;1.95;0.50;;;;;;;;;;5087578;28;20234;-62
2023/03/30 13:20:17;;;;;;;1.38;0.40;;;;;;;;;;5087448;28;20207;-62
2023/03/30 13:22:59;;;;;;;1.27;0.35;;;;;;;;;;5087142;28;20242;-62
2023/03/30 13:25:28;;;;;;;0.40;0.30;;;;;;;;;;5099137;28;20247;-62
2023/03/30 13:27:58;;;;;;;0.40;0.40;;;;;;;;;;5093273;28;20209;-62
2023/03/30 13:30:27;;;;;;;1.27;0.52;;;;;;;;;;5083631;28;20293;-63
2023/03/30 13:33:11;;;;;;;1.00;0.40;;;;;;;;;;5090948;28;20198;-63
2023/03/30 13:35:48;;;;;;;0.22;0.22;;;;;;;;;;5080592;28;20210;-64
2023/03/30 13:38:35;;;;;;;1.00;0.50;;;;;;;;;;5087342;28;20206;-63
2023/03/30 13:41:08;;;;;;;1.65;0.52;;;;;;;;;;5085420;28;20248;-62
2023/03/30 13:43:41;;;;;;;0.57;0.57;;;;;;;;;;5087462;28;20210;-63
2023/03/30 13:46:11;;;;;;;0.57;0.40;;;;;;;;;;5087739;28;20251;-62
2023/03/30 13:48:46;;;;;;;0.40;0.40;;;;;;;;;;5093565;28;20293;-66
2023/03/30 13:51:15;;;;;;;0.82;0.52;;;;;;;;;;5088738;28;20660;-68
2023/03/30 13:53:47;;;;;;;0.30;0.30;;;;;;;;;;5086140;28;20206;-67
2023/03/30 13:56:14;;;;;;;0.25;0.25;;;;;;;;;;5084718;28;20210;-67
2023/03/30 13:58:43;;;;;;;3.55;0.35;;;;;;;;;;5087723;28;20285;-66
2023/03/30 14:01:12;;;;;;;0.30;0.30;;;;;;;;;;5087195;28;20210;-68
2023/03/30 14:03:40;;;;;;;0.30;0.22;;;;;;;;;;5097718;28;20671;-60
2023/03/30 14:06:08;;;;;;;0.45;0.30;;;;;;;;;;5098838;28;20573;-60
2023/03/30 14:08:36;;;;;;;1.77;0.40;;;;;;;;;;5074500;28;20845;-61
2023/03/30 14:11:14;;;;;;;0.80;0.30;;;;;;;;;;5084796;28;20225;-60
2023/03/30 14:13:41;;;;;;;0.85;0.40;;;;;;;;;;5084643;28;20289;-62
2023/03/30 14:16:09;;;;;;;0.60;0.60;;;;;;;;;;5073144;28;20640;-61
2023/03/30 14:18:36;;;;;;;0.80;0.60;;;;;;;;;;5081830;28;20209;-61
2023/03/30 14:21:05;;;;;;;1.95;0.60;;;;;;;;;;5085521;28;20202;-62
2023/03/30 14:23:35;;;;;;;0.57;0.40;;;;;;;;;;5094038;28;20234;-63
2023/03/30 14:26:03;;;;;;;1.85;0.68;;;;;;;;;;5087214;28;20644;-62
2023/03/30 14:28:34;;;;;;;1.85;0.38;;;;;;;;;;5070038;28;20214;-63
2023/03/30 14:31:03;;;;;;;1.25;0.65;;;;;;;;;;5077816;28;20293;-62
2023/03/30 14:33:31;;;;;;;1.73;0.57;;;;;;;;;;5083365;28;20202;-62
2023/03/30 14:35:59;;;;;;;0.93;0.70;;;;;;;;;;5086110;28;20665;-62
2023/03/30 14:38:28;;;;;;;1.67;0.32;;;;;;;;;;5085982;28;20321;-62
2023/03/30 14:40:56;;;;;;;0.30;0.30;;;;;;;;;;5085537;28;20195;-62
2023/03/30 14:43:25;;;;;;;0.38;0.38;;;;;;;;;;5086084;28;20232;-62
2023/03/30 14:45:54;;;;;;;0.40;0.20;;;;;;;;;;5086516;28;20720;-62
2023/03/30 14:48:25;;;;;;;0.43;0.43;;;;;;;;;;5086398;28;20205;-61
2023/03/30 14:50:52;;;;;;;0.57;0.30;;;;;;;;;;5087115;28;20210;-61
2023/03/30 14:53:23;;;;;;;0.70;0.40;;;;;;;;;;5086738;28;20211;-63
2023/03/30 14:55:55;;;;;;;0.40;0.32;;;;;;;;;;5086822;28;20226;-63
2023/03/30 14:58:23;;;;;;;1.00;0.50;;;;;;;;;;5086361;28;20753;-63